createdAt,value
2019-06-07T00:00:41.939Z,75.82
2019-06-07T00:03:46.432Z,75.30
2019-06-07T00:06:50.871Z,75.49
2019-06-07T00:09:55.325Z,75.62
2019-06-07T00:13:00.048Z,75.05
2019-06-07T00:16:05.092Z,74.96
2019-06-07T00:19:09.639Z,75.04
2019-06-07T00:22:23.784Z,75.31
2019-06-07T00:25:24.300Z,74.94
2019-06-07T00:28:27.146Z,75.64
2019-06-07T00:31:31.919Z,75.18
2019-06-07T00:34:36.372Z,75.42
2019-06-07T00:37:40.897Z,74.94
2019-06-07T00:40:45.345Z,74.11
2019-06-07T00:43:49.799Z,73.02
2019-06-07T00:46:54.245Z,73.77
2019-06-07T00:49:58.687Z,74.89
2019-06-07T00:53:28.775Z,74.50
2019-06-07T00:56:09.298Z,75.09
2019-06-07T00:59:16.238Z,75.14
2019-06-07T01:02:24.719Z,75.11
2019-06-07T01:05:31.296Z,75.04
2019-06-07T01:08:32.878Z,75.56
2019-06-07T01:11:37.325Z,75.43
2019-06-07T01:14:41.798Z,75.55
2019-06-07T01:18:25.888Z,75.78
2019-06-07T01:20:52.413Z,76.30
2019-06-07T01:24:11.490Z,76.35
2019-06-07T01:27:03.039Z,76.72
2019-06-07T01:30:12.964Z,76.47
2019-06-07T01:33:18.328Z,76.96
2019-06-07T01:36:28.513Z,76.59
2019-06-07T01:39:31.514Z,76.74
2019-06-07T01:42:35.449Z,76.50
2019-06-07T01:45:39.906Z,76.40
2019-06-07T01:48:49.524Z,76.56
2019-06-07T01:51:50.521Z,77.25
2019-06-07T01:54:58.653Z,77.39
2019-06-07T01:58:01.480Z,76.90
2019-06-07T02:01:05.921Z,76.78
2019-06-07T02:04:10.434Z,77.19
2019-06-07T02:07:14.882Z,77.57
2019-06-07T02:10:24.062Z,77.91
2019-06-07T02:13:28.874Z,77.72
2019-06-07T02:16:32.690Z,77.90
2019-06-07T02:19:37.242Z,78.41
2019-06-07T02:22:43.336Z,78.50
2019-06-07T02:25:50.465Z,78.95
2019-06-07T02:28:53.956Z,79.28
2019-06-07T02:31:58.417Z,78.73
2019-06-07T02:35:03.164Z,78.30
2019-06-07T02:38:07.573Z,77.84
2019-06-07T02:41:12.033Z,78.80
2019-06-07T02:44:16.472Z,78.78
2019-06-07T02:47:22.600Z,78.20
2019-06-07T02:50:30.346Z,78.12
2019-06-07T02:53:38.382Z,78.57
2019-06-07T02:56:56.682Z,78.49
2019-06-07T03:00:07.054Z,78.70
2019-06-07T03:02:52.139Z,78.20
2019-06-07T03:05:57.731Z,78.17
2019-06-07T03:09:02.782Z,78.21
2019-06-07T03:12:07.973Z,78.22
2019-06-07T03:15:32.134Z,77.80
2019-06-07T03:18:28.727Z,77.84
2019-06-07T03:21:36.511Z,77.70
2019-06-07T03:24:44.093Z,77.60
2019-06-07T03:27:50.419Z,76.97
2019-06-07T03:31:02.421Z,77.03
2019-06-07T03:34:01.342Z,76.70
2019-06-07T03:37:05.791Z,76.97
2019-06-07T03:40:10.681Z,77.19
2019-06-07T03:43:15.125Z,77.42
2019-06-07T03:46:19.581Z,77.72
2019-06-07T03:49:24.021Z,77.83
2019-06-07T03:52:30.132Z,78.18
2019-06-07T03:55:37.775Z,78.01
2019-06-07T03:58:49.855Z,78.22
2019-06-07T04:01:47.385Z,78.24
2019-06-07T04:04:51.830Z,78.04
2019-06-07T04:07:56.289Z,78.30
2019-06-07T04:11:00.968Z,78.10
2019-06-07T04:14:05.541Z,78.11
2019-06-07T04:17:09.994Z,78.56
2019-06-07T04:20:14.501Z,78.51
2019-06-07T04:23:27.877Z,78.34
2019-06-07T04:26:25.413Z,78.30
2019-06-07T04:29:33.912Z,78.36
2019-06-07T04:32:39.038Z,78.40
2019-06-07T04:35:45.234Z,78.67
2019-06-07T04:38:50.681Z,79.03
2019-06-07T04:41:56.841Z,78.96
2019-06-07T04:45:01.476Z,78.97
2019-06-07T04:48:08.102Z,78.54
2019-06-07T04:51:15.054Z,78.63
2019-06-07T04:54:19.747Z,78.68
2019-06-07T04:57:24.219Z,79.21
2019-06-07T05:01:01.430Z,79.21
2019-06-07T05:03:44.601Z,79.03
2019-06-07T05:06:49.081Z,78.38
2019-06-07T05:09:53.548Z,78.08
2019-06-07T05:12:57.993Z,78.43
2019-06-07T05:16:02.443Z,78.24
2019-06-07T05:19:06.895Z,78.94
2019-06-07T05:22:11.403Z,77.75
2019-06-07T05:25:17.013Z,78.11
2019-06-07T05:28:21.475Z,77.74
2019-06-07T05:31:26.099Z,77.34
2019-06-07T05:34:32.234Z,76.79
2019-06-07T05:37:38.210Z,76.07
2019-06-07T05:40:48.728Z,75.65
2019-06-07T05:44:11.274Z,74.90
2019-06-07T05:46:56.804Z,75.03
2019-06-07T05:50:01.285Z,74.43
2019-06-07T05:53:06.862Z,73.27
2019-06-07T05:56:12.906Z,73.78
2019-06-07T05:59:17.959Z,73.70
2019-06-07T06:02:24.568Z,72.08
2019-06-07T06:05:34.270Z,72.51
2019-06-07T06:08:36.593Z,71.92
2019-06-07T06:11:52.148Z,71.53
2019-06-07T06:14:47.228Z,71.07
2019-06-07T06:17:53.886Z,69.98
2019-06-07T06:21:16.203Z,68.44
2019-06-07T06:24:04.127Z,68.92
2019-06-07T06:27:41.539Z,68.85
2019-06-07T06:30:15.682Z,66.80
2019-06-07T06:33:33.284Z,67.79
2019-06-07T06:36:26.307Z,67.27
2019-06-07T06:39:30.777Z,66.09
2019-06-07T06:42:35.275Z,65.11
2019-06-07T06:45:40.241Z,64.78
2019-06-07T06:48:48.294Z,63.78
2019-06-07T06:51:53.605Z,63.21
2019-06-07T06:55:00.821Z,62.11
2019-06-07T06:58:03.679Z,60.34
2019-06-07T07:01:08.125Z,59.13
2019-06-07T07:04:13.890Z,58.70
2019-06-07T07:07:18.717Z,58.55
2019-06-07T07:10:43.096Z,58.31
2019-06-07T07:13:49.871Z,57.38
2019-06-07T07:16:56.681Z,57.11
2019-06-07T07:20:00.573Z,57.28
2019-06-07T07:23:05.627Z,55.88
2019-06-07T07:26:10.095Z,56.98
2019-06-07T07:29:14.535Z,56.69
2019-06-07T07:32:19.308Z,55.99
2019-06-07T07:35:23.763Z,55.75
2019-06-07T07:38:28.209Z,55.52
2019-06-07T07:41:32.726Z,55.29
2019-06-07T07:44:37.171Z,54.39
2019-06-07T07:47:58.380Z,54.87
2019-06-07T07:50:51.445Z,54.56
2019-06-07T07:54:09.056Z,55.02
2019-06-07T07:57:00.430Z,54.47
2019-06-07T08:00:48.861Z,54.57
2019-06-07T08:03:13.322Z,54.02
2019-06-07T08:06:18.017Z,53.96
2019-06-07T08:09:22.445Z,54.50
2019-06-07T08:12:26.895Z,54.65
2019-06-07T08:15:31.529Z,53.54
2019-06-07T08:18:36.037Z,53.91
2019-06-07T08:21:40.475Z,54.79
2019-06-07T08:24:44.909Z,53.10
2019-06-07T08:27:49.682Z,54.23
2019-06-07T08:31:02.427Z,53.25
2019-06-07T08:34:00.872Z,53.60
2019-06-07T08:37:05.918Z,53.93
2019-06-07T08:40:13.700Z,53.83
2019-06-07T08:43:20.991Z,52.14
2019-06-07T08:46:24.336Z,53.10
2019-06-07T08:49:28.780Z,53.29
2019-06-07T08:52:33.230Z,53.63
2019-06-07T08:55:37.983Z,54.06
2019-06-07T08:58:42.440Z,53.39
2019-06-07T09:01:46.884Z,52.21
2019-06-07T09:04:54.697Z,53.71
2019-06-07T09:08:21.751Z,53.69
2019-06-07T09:11:10.223Z,52.18
2019-06-07T09:14:10.157Z,51.45
2019-06-07T09:17:14.790Z,52.15
2019-06-07T09:20:36.550Z,50.82
2019-06-07T09:23:27.592Z,50.43
2019-06-07T09:26:32.225Z,52.19
2019-06-07T09:29:37.601Z,52.13
2019-06-07T09:32:42.048Z,50.73
2019-06-07T09:35:46.506Z,51.66
2019-06-07T09:38:51.598Z,51.53
2019-06-07T09:41:56.519Z,51.07
2019-06-07T09:45:08.185Z,52.68
2019-06-07T09:48:13.701Z,51.72
2019-06-07T09:51:19.877Z,48.84
2019-06-07T09:57:28.137Z,49.23
2019-06-07T10:00:40.863Z,48.40
2019-06-07T10:03:39.120Z,47.97
2019-06-07T10:06:48.093Z,50.43
2019-06-07T10:12:59.523Z,48.73
2019-06-07T10:16:04.808Z,48.34
2019-06-07T10:19:09.899Z,48.48
2019-06-07T10:22:14.539Z,47.99
2019-06-07T10:25:18.991Z,48.02
2019-06-07T10:28:23.518Z,50.32
2019-06-07T10:31:27.965Z,46.88
2019-06-07T10:34:32.418Z,48.57
2019-06-07T10:37:36.888Z,47.69
2019-06-07T10:40:42.577Z,47.18
2019-06-07T10:43:47.033Z,47.59
2019-06-07T10:46:51.744Z,47.91
2019-06-07T10:49:56.274Z,47.10
2019-06-07T10:53:02.287Z,46.64
2019-06-07T10:56:07.114Z,45.27
2019-06-07T10:59:11.998Z,46.22
2019-06-07T11:02:17.880Z,45.12
2019-06-07T11:05:22.510Z,45.39
2019-06-07T11:08:26.963Z,46.00
2019-06-07T11:11:31.406Z,47.03
2019-06-07T11:14:36.170Z,44.98
2019-06-07T11:17:40.895Z,45.52
2019-06-07T11:20:45.622Z,45.52
2019-06-07T11:23:50.461Z,42.86
2019-06-07T11:26:54.897Z,43.52
2019-06-07T11:29:59.610Z,45.00
2019-06-07T11:33:04.341Z,44.62
2019-06-07T11:36:08.784Z,45.80
2019-06-07T11:39:13.246Z,44.21
2019-06-07T11:42:20.064Z,43.18
2019-06-07T11:45:24.204Z,43.02
2019-06-07T11:48:28.653Z,46.11
2019-06-07T11:51:34.018Z,43.69
2019-06-07T11:54:38.465Z,46.54
2019-06-07T11:57:42.922Z,43.66
2019-06-07T12:00:47.501Z,44.30
2019-06-07T12:03:52.378Z,42.79
2019-06-07T12:06:56.838Z,44.26
2019-06-07T12:10:01.283Z,42.75
2019-06-07T12:13:05.795Z,40.75
2019-06-07T12:16:11.262Z,42.28
2019-06-07T12:19:15.893Z,41.45
2019-06-07T12:22:20.485Z,42.23
2019-06-07T12:25:25.302Z,41.27
2019-06-07T12:28:29.832Z,41.56
2019-06-07T12:31:34.265Z,41.16
2019-06-07T12:34:39.058Z,42.88
2019-06-07T12:37:44.868Z,40.70
2019-06-07T12:40:57.464Z,40.60
2019-06-07T12:43:59.111Z,43.40
2019-06-07T12:47:02.177Z,39.90
2019-06-07T12:50:08.333Z,39.56
2019-06-07T12:53:13.581Z,42.50
2019-06-07T12:56:18.198Z,42.48
2019-06-07T12:59:24.203Z,40.59
2019-06-07T13:02:28.808Z,42.32
2019-06-07T13:05:33.448Z,40.59
2019-06-07T13:08:38.226Z,41.73
2019-06-07T13:11:42.742Z,41.65
2019-06-07T13:14:47.251Z,38.48
2019-06-07T13:17:51.742Z,38.35
2019-06-07T13:20:56.458Z,40.74
2019-06-07T13:24:01.052Z,40.79
2019-06-07T13:27:05.653Z,39.11
2019-06-07T13:30:11.371Z,39.13
2019-06-07T13:33:16.834Z,38.80
2019-06-07T13:36:22.416Z,41.12
2019-06-07T13:39:29.710Z,38.30
2019-06-07T13:42:35.222Z,40.06
2019-06-07T13:45:39.670Z,40.72
2019-06-07T13:48:44.261Z,38.49
2019-06-07T13:51:48.921Z,38.76
2019-06-07T13:54:53.384Z,41.09
2019-06-07T13:57:57.841Z,39.52
2019-06-07T14:01:02.296Z,39.97
2019-06-07T14:04:06.769Z,39.42
2019-06-07T14:07:11.208Z,40.69
2019-06-07T14:10:17.106Z,37.78
2019-06-07T14:13:21.931Z,38.50
2019-06-07T14:16:26.405Z,39.66
2019-06-07T14:19:31.018Z,38.03
2019-06-07T14:22:35.789Z,34.53
2019-06-07T14:25:40.247Z,37.20
2019-06-07T14:28:44.698Z,37.05
2019-06-07T14:31:49.151Z,36.27
2019-06-07T14:34:53.602Z,36.22
2019-06-07T14:37:58.056Z,37.67
2019-06-07T14:41:02.859Z,37.45
2019-06-07T14:44:07.299Z,36.11
2019-06-07T14:47:11.760Z,36.23
2019-06-07T14:50:17.413Z,37.27
2019-06-07T14:53:21.881Z,36.11
2019-06-07T14:56:27.178Z,36.25
2019-06-07T14:59:32.732Z,36.12
2019-06-07T15:02:38.394Z,35.30
2019-06-07T15:05:43.668Z,35.18
2019-06-07T15:08:51.345Z,35.39
2019-06-07T15:11:54.293Z,33.31
2019-06-07T15:14:58.737Z,34.28
2019-06-07T15:18:03.369Z,33.79
2019-06-07T15:21:08.154Z,33.79
2019-06-07T15:24:12.887Z,32.58
2019-06-07T15:27:17.473Z,32.25
2019-06-07T15:30:23.011Z,33.05
2019-06-07T15:33:27.889Z,33.38
2019-06-07T15:36:32.406Z,34.16
2019-06-07T15:39:37.140Z,34.08
2019-06-07T15:42:52.058Z,33.24
2019-06-07T15:45:47.783Z,33.68
2019-06-07T15:48:52.559Z,34.68
2019-06-07T15:51:57.289Z,34.70
2019-06-07T15:55:01.733Z,35.17
2019-06-07T15:58:06.443Z,35.79
2019-06-07T16:01:11.174Z,35.90
2019-06-07T16:04:15.634Z,36.48
2019-06-07T16:07:20.083Z,36.06
2019-06-07T16:10:25.138Z,35.58
2019-06-07T16:13:29.588Z,37.26
2019-06-07T16:16:35.062Z,34.46
2019-06-07T16:19:42.981Z,35.28
2019-06-07T16:22:45.751Z,37.31
2019-06-07T16:25:50.456Z,40.58
2019-06-07T16:28:57.256Z,42.06
2019-06-07T16:32:01.350Z,43.09
2019-06-07T16:35:08.267Z,44.69
2019-06-07T16:38:13.061Z,45.37
2019-06-07T16:41:17.523Z,46.24
2019-06-07T16:44:21.974Z,46.87
2019-06-07T16:47:26.433Z,48.11
2019-06-07T16:50:30.925Z,47.60
2019-06-07T16:53:36.174Z,47.72
2019-06-07T16:56:45.331Z,48.62
2019-06-07T16:59:49.188Z,48.13
2019-06-07T17:02:53.373Z,45.53
2019-06-07T17:05:57.816Z,44.02
2019-06-07T17:09:02.269Z,45.08
2019-06-07T17:12:06.728Z,45.00
2019-06-07T17:15:14.276Z,45.65
2019-06-07T17:18:18.738Z,45.59
2019-06-07T17:21:23.181Z,45.54
2019-06-07T17:24:28.123Z,46.73
2019-06-07T17:27:32.575Z,47.33
2019-06-07T17:30:37.023Z,47.59
2019-06-07T17:33:41.954Z,48.03
2019-06-07T17:36:46.516Z,49.49
2019-06-07T17:39:51.260Z,50.10
2019-06-07T17:42:55.705Z,49.96
2019-06-07T17:46:00.162Z,49.74
2019-06-07T17:49:04.772Z,49.69
2019-06-07T17:52:09.234Z,49.93
2019-06-07T17:55:14.522Z,49.54
2019-06-07T17:58:18.997Z,49.88
2019-06-07T18:01:23.511Z,50.78
2019-06-07T18:04:27.947Z,51.24
2019-06-07T18:07:32.941Z,50.28
2019-06-07T18:10:41.011Z,49.09
2019-06-07T18:13:46.029Z,49.25
2019-06-07T18:16:50.628Z,48.31
2019-06-07T18:19:55.299Z,48.39
2019-06-07T18:22:59.749Z,48.38
2019-06-07T18:26:04.208Z,47.94
2019-06-07T18:29:08.645Z,47.73
2019-06-07T18:32:13.711Z,47.65
2019-06-07T18:35:18.673Z,48.03
2019-06-07T18:38:23.387Z,47.85
2019-06-07T18:41:27.823Z,47.50
2019-06-07T18:44:32.546Z,47.37
2019-06-07T18:47:36.984Z,47.56
2019-06-07T18:50:41.513Z,47.57
2019-06-07T18:53:45.960Z,47.49
2019-06-07T18:56:50.742Z,47.98
2019-06-07T18:59:56.585Z,47.48
2019-06-07T19:03:01.066Z,47.55
2019-06-07T19:06:05.525Z,47.51
2019-06-07T19:09:10.304Z,47.76
2019-06-07T19:12:14.753Z,47.64
2019-06-07T19:15:22.541Z,47.28
2019-06-07T19:18:27.248Z,47.36
2019-06-07T19:21:32.498Z,47.90
2019-06-07T19:24:37.343Z,47.45
2019-06-07T19:27:41.795Z,47.69
2019-06-07T19:30:46.247Z,46.74
2019-06-07T19:33:51.066Z,46.48
2019-06-07T19:36:55.698Z,46.60
2019-06-07T19:40:00.572Z,46.59
2019-06-07T19:43:05.047Z,46.95
2019-06-07T19:46:09.470Z,47.12
2019-06-07T19:49:13.926Z,47.35
2019-06-07T19:52:18.374Z,47.79
2019-06-07T19:55:22.827Z,48.00
2019-06-07T19:58:27.303Z,49.08
2019-06-07T20:01:31.754Z,49.11
2019-06-07T20:04:36.237Z,49.75
2019-06-07T20:07:41.846Z,49.56
2019-06-07T20:10:46.313Z,50.28
2019-06-07T20:13:50.780Z,49.91
2019-06-07T20:16:55.269Z,50.58
2019-06-07T20:20:00.483Z,50.25
2019-06-07T20:23:05.378Z,50.45
2019-06-07T20:26:11.043Z,50.91
2019-06-07T20:29:25.844Z,50.91
2019-06-07T20:32:21.762Z,51.17
2019-06-07T20:35:26.221Z,50.37
2019-06-07T20:38:30.676Z,51.20
2019-06-07T20:41:35.138Z,51.35
2019-06-07T20:44:39.596Z,52.35
2019-06-07T20:47:44.038Z,52.65
2019-06-07T20:50:48.505Z,54.27
2019-06-07T20:53:52.963Z,55.45
2019-06-07T20:56:58.805Z,57.39
2019-06-07T21:00:13.693Z,58.51
2019-06-07T21:03:11.231Z,59.63
2019-06-07T21:06:15.679Z,58.25
2019-06-07T21:09:20.187Z,59.47
2019-06-07T21:12:24.636Z,58.72
2019-06-07T21:15:29.091Z,57.44
2019-06-07T21:18:33.534Z,58.74
2019-06-07T21:21:37.993Z,55.20
2019-06-07T21:24:42.450Z,53.95
2019-06-07T21:27:46.894Z,52.77
2019-06-07T21:30:51.596Z,51.86
2019-06-07T21:33:56.078Z,51.94
2019-06-07T21:37:01.691Z,51.29
2019-06-07T21:40:08.218Z,51.25
2019-06-07T21:43:12.910Z,51.84
2019-06-07T21:46:20.553Z,52.25
2019-06-07T21:49:23.774Z,52.19
2019-06-07T21:52:28.492Z,53.24
2019-06-07T21:55:33.237Z,55.35
2019-06-07T21:58:37.954Z,56.22
2019-06-07T22:01:42.406Z,56.42
2019-06-07T22:04:46.855Z,56.71
2019-06-07T22:07:51.298Z,57.60
2019-06-07T22:10:55.748Z,58.47
2019-06-07T22:14:00.186Z,57.32
2019-06-07T22:17:04.629Z,58.43
2019-06-07T22:20:10.786Z,63.85
2019-06-07T22:23:15.479Z,64.70
2019-06-07T22:26:19.922Z,62.51
2019-06-07T22:29:24.652Z,61.89
2019-06-07T22:32:29.094Z,62.17
2019-06-07T22:35:33.554Z,64.37
2019-06-07T22:38:38.014Z,67.71
2019-06-07T22:41:42.479Z,65.01
2019-06-07T22:44:47.211Z,63.85
2019-06-07T22:47:51.661Z,66.42
2019-06-07T22:50:57.788Z,67.61
2019-06-07T22:54:02.260Z,68.90
2019-06-07T22:57:12.013Z,69.72
2019-06-07T23:00:19.393Z,65.53
2019-06-07T23:03:22.908Z,67.30
2019-06-07T23:06:27.680Z,66.75
2019-06-07T23:09:32.513Z,65.14
2019-06-07T23:12:36.961Z,65.67
2019-06-07T23:15:41.866Z,67.83
2019-06-07T23:18:46.308Z,66.58
2019-06-07T23:21:51.124Z,65.25
2019-06-07T23:24:55.558Z,65.08
2019-06-07T23:28:00.089Z,65.53
2019-06-07T23:31:04.535Z,66.24
2019-06-07T23:34:08.973Z,66.69
2019-06-07T23:37:13.427Z,68.69
2019-06-07T23:40:19.567Z,68.83
2019-06-07T23:43:24.360Z,70.66
2019-06-07T23:46:28.803Z,69.28
2019-06-07T23:49:33.244Z,70.68
2019-06-07T23:52:37.691Z,69.68
2019-06-07T23:55:42.135Z,70.50
2019-06-07T23:58:46.587Z,70.76
